Time;durP1;ratioP1;P1;durP2;ratioP2;P2;SDS_P1;SDS_P2;PMS_P1;PMS_P2;Temp;Humidity;BMP_temperature;BMP_pressure;BME280_temperature;BME280_humidity;BME280_pressure;Samples;Min_cycle;Max_cycle;Signal;HPM_P1;HPM_P2
2023/08/13 00:01:42;;;;;;;12.27;2.88;;;;;;;17.24;100.00;101525.53;5030312;28;20493;-59
2023/08/13 00:04:10;;;;;;;9.80;2.42;;;;;;;17.21;100.00;101525.81;5029933;28;20070;-59
2023/08/13 00:06:38;;;;;;;9.77;2.42;;;;;;;17.15;100.00;101528.97;5030432;28;20045;-59
2023/08/13 00:09:06;;;;;;;8.95;2.70;;;;;;;17.12;100.00;101526.56;5029671;28;20060;-59
2023/08/13 00:11:36;;;;;;;9.57;2.53;;;;;;;17.05;100.00;101526.22;5031561;28;20504;-57
2023/08/13 00:14:04;;;;;;;11.35;2.53;;;;;;;17.03;100.00;101525.50;5032529;28;20050;-57
2023/08/13 00:16:33;;;;;;;7.00;2.17;;;;;;;17.05;100.00;101523.56;5030877;28;20481;-59
2023/08/13 00:19:01;;;;;;;9.38;2.50;;;;;;;16.95;100.00;101517.31;5029081;28;20057;-59
2023/08/13 00:21:29;;;;;;;8.20;2.38;;;;;;;16.95;100.00;101519.97;5030869;28;20776;-59
2023/08/13 00:23:57;;;;;;;9.93;2.65;;;;;;;16.94;100.00;101512.97;5028175;28;20045;-57
2023/08/13 00:26:25;;;;;;;10.27;3.50;;;;;;;16.88;100.00;101513.47;5031430;28;20091;-59
2023/08/13 00:28:55;;;;;;;9.77;2.83;;;;;;;16.83;100.00;101505.84;5031433;28;20057;-56
2023/08/13 00:31:23;;;;;;;10.73;2.53;;;;;;;16.81;100.00;101512.25;5030354;28;20412;-59
2023/08/13 00:33:51;;;;;;;10.75;2.50;;;;;;;16.85;100.00;101513.69;5032567;28;20500;-59
2023/08/13 00:36:20;;;;;;;10.63;2.85;;;;;;;16.84;100.00;101509.38;5029030;28;20523;-59
2023/08/13 00:38:48;;;;;;;10.38;2.47;;;;;;;16.76;100.00;101514.47;5028954;28;20681;-59
2023/08/13 00:41:19;;;;;;;9.02;2.55;;;;;;;16.69;100.00;101516.75;5030414;28;20388;-59
2023/08/13 00:43:47;;;;;;;10.70;2.58;;;;;;;16.63;100.00;101512.75;5029995;28;20121;-56
2023/08/13 00:46:17;;;;;;;11.27;2.67;;;;;;;16.60;100.00;101513.00;5030167;28;20041;-57
2023/08/13 00:48:45;;;;;;;9.98;2.78;;;;;;;16.58;100.00;101512.31;5029884;28;20060;-57
2023/08/13 00:51:14;;;;;;;8.27;2.10;;;;;;;16.61;100.00;101514.72;5029838;28;20054;-56
2023/08/13 00:53:46;;;;;;;10.48;2.30;;;;;;;16.60;100.00;101520.16;5027681;28;20485;-57
2023/08/13 00:56:15;;;;;;;13.50;2.77;;;;;;;16.55;100.00;101509.88;5030100;28;20080;-56
2023/08/13 00:58:45;;;;;;;10.38;2.55;;;;;;;16.48;100.00;101520.13;5031952;28;20041;-56
2023/08/13 01:01:13;;;;;;;11.48;2.60;;;;;;;16.42;100.00;101510.03;5028819;28;20500;-57
2023/08/13 01:03:43;;;;;;;10.25;2.72;;;;;;;16.41;100.00;101510.97;5030490;28;20045;-57
2023/08/13 01:06:16;;;;;;;10.57;2.60;;;;;;;16.38;100.00;101506.75;5033004;28;20057;-56
2023/08/13 01:09:00;;;;;;;10.55;2.70;;;;;;;16.40;100.00;101509.28;5028947;28;20049;-57
2023/08/13 01:11:41;;;;;;;8.45;2.05;;;;;;;16.27;100.00;101509.44;5029531;28;20068;-59
2023/08/13 01:14:21;;;;;;;10.00;2.90;;;;;;;16.37;100.00;101509.53;5029626;28;20121;-59
2023/08/13 01:16:52;;;;;;;7.90;1.95;;;;;;;16.33;100.00;101516.91;5028683;28;20046;-59
2023/08/13 01:19:23;;;;;;;9.32;2.35;;;;;;;16.37;100.00;101515.72;5029277;28;20049;-59
2023/08/13 01:21:51;;;;;;;10.32;2.95;;;;;;;16.27;100.00;101514.75;5032541;28;20052;-59
2023/08/13 01:24:20;;;;;;;9.73;2.40;;;;;;;16.26;100.00;101518.34;5031859;28;20102;-59
2023/08/13 01:27:00;;;;;;;10.02;2.67;;;;;;;16.26;100.00;101515.69;5029569;28;20041;-59
2023/08/13 01:29:35;;;;;;;9.73;2.65;;;;;;;16.22;100.00;101512.47;5029691;28;20045;-59
2023/08/13 01:32:07;;;;;;;12.90;2.75;;;;;;;16.14;100.00;101519.31;5029344;28;20049;-60
2023/08/13 01:34:36;;;;;;;9.10;2.40;;;;;;;16.07;100.00;101512.81;5028747;28;20061;-56
2023/08/13 01:37:05;;;;;;;9.75;2.17;;;;;;;16.10;100.00;101510.78;5029606;28;20049;-56
2023/08/13 01:39:35;;;;;;;8.13;2.22;;;;;;;16.05;100.00;101511.09;5027552;28;20056;-55
2023/08/13 01:42:10;;;;;;;8.25;2.50;;;;;;;16.04;100.00;101511.22;5029601;28;20064;-57
2023/08/13 01:44:38;;;;;;;13.55;2.75;;;;;;;15.98;100.00;101514.34;5028610;28;20049;-56
2023/08/13 01:47:06;;;;;;;12.05;2.55;;;;;;;15.91;100.00;101508.69;5029217;28;20382;-57
2023/08/13 01:49:35;;;;;;;8.70;2.50;;;;;;;15.88;100.00;101514.22;5028160;28;20053;-57
2023/08/13 01:52:03;;;;;;;10.23;2.40;;;;;;;15.92;100.00;101514.84;5028660;28;20104;-56
2023/08/13 01:54:31;;;;;;;15.13;2.97;;;;;;;15.85;100.00;101515.28;5027452;28;20064;-57
2023/08/13 01:57:04;;;;;;;10.38;2.60;;;;;;;15.84;100.00;101520.72;5031619;28;20057;-59
2023/08/13 01:59:32;;;;;;;8.30;2.28;;;;;;;15.86;100.00;101519.66;5031755;28;20041;-57
2023/08/13 02:02:01;;;;;;;13.73;2.67;;;;;;;15.84;100.00;101512.75;5028815;28;20050;-54
2023/08/13 02:04:29;;;;;;;12.25;2.78;;;;;;;15.84;100.00;101512.75;5028293;28;20047;-56
2023/08/13 02:06:57;;;;;;;12.43;2.58;;;;;;;15.74;100.00;101519.72;5029541;28;20057;-57
2023/08/13 02:09:25;;;;;;;10.88;2.58;;;;;;;15.74;100.00;101514.41;5025526;28;20049;-59
2023/08/13 02:11:54;;;;;;;10.63;3.05;;;;;;;15.69;100.00;101520.06;5031069;28;20041;-56
2023/08/13 02:14:24;;;;;;;8.35;2.17;;;;;;;15.66;100.00;101521.13;5030782;28;20057;-57
2023/08/13 02:16:53;;;;;;;10.38;2.28;;;;;;;15.70;100.00;101514.63;5028576;28;20108;-57
2023/08/13 02:19:21;;;;;;;9.90;2.47;;;;;;;15.67;100.00;101522.81;5028145;28;20444;-57
2023/08/13 02:21:49;;;;;;;9.75;2.53;;;;;;;15.67;100.00;101520.19;5028501;28;20033;-56
2023/08/13 02:24:17;;;;;;;8.43;2.30;;;;;;;15.69;100.00;101512.97;5026916;28;20827;-56
2023/08/13 02:26:45;;;;;;;9.93;2.53;;;;;;;15.63;100.00;101524.03;5027512;28;20041;-57
2023/08/13 02:29:13;;;;;;;15.32;3.00;;;;;;;15.64;100.00;101509.81;5028086;28;20080;-56
2023/08/13 02:31:43;;;;;;;8.90;2.20;;;;;;;15.62;100.00;101508.25;5027997;28;20049;-56
2023/08/13 02:34:11;;;;;;;11.07;2.50;;;;;;;15.59;100.00;101506.66;5027840;28;20527;-57
2023/08/13 02:36:39;;;;;;;12.63;2.75;;;;;;;15.58;100.00;101514.72;5030722;28;20366;-55
2023/08/13 02:39:08;;;;;;;10.57;2.45;;;;;;;15.53;100.00;101509.78;5027010;28;20136;-59
2023/08/13 02:41:36;;;;;;;7.63;2.50;;;;;;;15.53;100.00;101515.09;5029283;28;20042;-59
2023/08/13 02:44:05;;;;;;;9.57;2.63;;;;;;;15.51;100.00;101501.09;5029799;28;20050;-59
2023/08/13 02:46:33;;;;;;;12.27;2.60;;;;;;;15.51;100.00;101515.19;5027954;28;20409;-59
2023/08/13 02:49:02;;;;;;;9.52;2.85;;;;;;;15.50;100.00;101513.53;5028169;28;20562;-59
2023/08/13 02:51:30;;;;;;;8.27;2.38;;;;;;;15.47;100.00;101512.91;5027964;28;20501;-59
2023/08/13 02:53:59;;;;;;;9.10;2.53;;;;;;;15.45;100.00;101512.19;5027770;28;20057;-59
2023/08/13 02:56:27;;;;;;;14.93;2.92;;;;;;;15.45;100.00;101504.22;5031210;28;20049;-56
2023/08/13 02:58:55;;;;;;;8.75;2.72;;;;;;;15.48;100.00;101511.94;5031621;28;20132;-56
2023/08/13 03:01:23;;;;;;;14.45;3.53;;;;;;;15.38;100.00;101504.69;5027688;28;20053;-59
2023/08/13 03:03:52;;;;;;;12.35;2.78;;;;;;;15.36;100.00;101509.22;5027600;28;20045;-59
2023/08/13 03:06:24;;;;;;;9.00;2.42;;;;;;;15.34;100.00;101505.03;5027369;28;20128;-56
2023/08/13 03:08:53;;;;;;;10.02;2.38;;;;;;;15.31;100.00;101508.75;5026719;28;20164;-56
2023/08/13 03:11:21;;;;;;;11.25;2.60;;;;;;;15.31;100.00;101500.81;5029299;28;20378;-56
2023/08/13 03:13:50;;;;;;;9.65;2.42;;;;;;;15.30;100.00;101504.41;5031229;28;20049;-59
2023/08/13 03:16:20;;;;;;;12.10;2.60;;;;;;;15.31;100.00;101511.41;5030936;28;20559;-59
2023/08/13 03:18:48;;;;;;;10.05;2.65;;;;;;;15.29;100.00;101515.13;5027862;28;20084;-56
2023/08/13 03:21:16;;;;;;;10.85;2.92;;;;;;;15.27;100.00;101512.59;5027784;28;20532;-59
2023/08/13 03:23:46;;;;;;;10.85;2.80;;;;;;;15.27;100.00;101517.91;5029116;28;20046;-59
2023/08/13 03:26:14;;;;;;;11.23;2.53;;;;;;;15.32;100.00;101512.25;5030988;28;20128;-56
2023/08/13 03:28:42;;;;;;;15.73;3.50;;;;;;;15.28;100.00;101505.47;5028407;28;20144;-57
2023/08/13 03:31:10;;;;;;;11.02;2.70;;;;;;;15.27;100.00;101506.44;5027941;28;20049;-59
2023/08/13 03:33:39;;;;;;;10.43;2.70;;;;;;;15.24;100.00;101506.66;5029698;28;20501;-59
2023/08/13 03:36:07;;;;;;;11.18;2.42;;;;;;;15.25;100.00;101513.66;5027755;28;20556;-57
2023/08/13 03:38:35;;;;;;;11.13;2.45;;;;;;;15.21;100.00;101513.03;5029736;28;20081;-59
2023/08/13 03:41:05;;;;;;;11.38;2.70;;;;;;;15.20;100.00;101508.69;5034374;28;20051;-56
2023/08/13 03:43:33;;;;;;;10.52;2.38;;;;;;;15.18;100.00;101508.81;5031114;28;20778;-56
2023/08/13 03:46:02;;;;;;;8.75;2.22;;;;;;;15.18;100.00;101511.47;5032130;28;20140;-59
2023/08/13 03:48:31;;;;;;;13.05;2.85;;;;;;;15.29;100.00;101507.19;5034355;28;20053;-56
2023/08/13 03:51:03;;;;;;;13.60;2.95;;;;;;;15.20;100.00;101508.69;5032365;28;20128;-59
2023/08/13 03:53:31;;;;;;;9.23;2.13;;;;;;;15.19;100.00;101510.50;5029515;28;20140;-59
2023/08/13 03:55:59;;;;;;;9.35;2.50;;;;;;;15.13;100.00;101502.16;5030066;28;20507;-59
2023/08/13 03:58:30;;;;;;;9.18;2.45;;;;;;;15.13;100.00;101507.47;5031373;28;20049;-59
2023/08/13 04:01:04;;;;;;;11.10;2.90;;;;;;;15.11;100.00;101509.41;5032683;28;20085;-59
2023/08/13 04:03:33;;;;;;;11.90;2.72;;;;;;;15.12;100.00;101505.75;5031925;28;20816;-59
2023/08/13 04:06:01;;;;;;;10.52;2.45;;;;;;;15.09;100.00;101509.47;5030989;28;20405;-59
2023/08/13 04:08:29;;;;;;;11.57;3.05;;;;;;;15.07;100.00;101506.13;5030156;28;20624;-59
2023/08/13 04:10:58;;;;;;;9.55;2.80;;;;;;;15.02;100.00;101513.53;5030494;28;20413;-58
2023/08/13 04:13:26;;;;;;;8.43;2.40;;;;;;;15.10;100.00;101513.81;5033997;28;20045;-59
2023/08/13 04:15:55;;;;;;;11.10;2.88;;;;;;;15.06;100.00;101506.22;5033899;28;20045;-59
2023/08/13 04:18:24;;;;;;;10.60;2.85;;;;;;;15.01;100.00;101512.72;5033479;28;20809;-59
2023/08/13 04:20:52;;;;;;;7.68;2.35;;;;;;;15.03;100.00;101513.44;5031090;28;20041;-59
2023/08/13 04:23:20;;;;;;;9.98;2.35;;;;;;;15.10;100.00;101519.13;5029703;28;20497;-59
2023/08/13 04:25:49;;;;;;;11.80;2.72;;;;;;;15.06;100.00;101519.47;5028816;28;20087;-57
2023/08/13 04:28:17;;;;;;;12.27;2.80;;;;;;;15.01;100.00;101514.50;5031634;28;20042;-59
2023/08/13 04:30:45;;;;;;;9.15;2.17;;;;;;;15.01;100.00;101520.66;5033065;28;20072;-59
2023/08/13 04:33:15;;;;;;;13.35;2.50;;;;;;;14.99;100.00;101514.63;5030247;28;20049;-59
2023/08/13 04:35:43;;;;;;;7.18;2.10;;;;;;;14.97;100.00;101516.53;5029676;28;20053;-57
2023/08/13 04:38:11;;;;;;;9.63;2.42;;;;;;;14.99;100.00;101519.91;5029124;28;20068;-59
2023/08/13 04:40:39;;;;;;;10.52;2.78;;;;;;;15.00;100.00;101518.97;5029469;28;20049;-56
2023/08/13 04:43:07;;;;;;;8.43;2.35;;;;;;;14.98;100.00;101518.25;5032879;28;20405;-58
2023/08/13 04:45:36;;;;;;;10.60;3.08;;;;;;;14.99;100.00;101519.06;5033356;28;20416;-56
2023/08/13 04:48:04;;;;;;;11.27;2.42;;;;;;;14.99;100.00;101519.91;5032989;28;20046;-56
2023/08/13 04:50:34;;;;;;;9.82;2.08;;;;;;;15.04;100.00;101512.47;5032688;28;20133;-59
2023/08/13 04:53:02;;;;;;;16.23;2.78;;;;;;;15.11;100.00;101512.88;5031841;28;20053;-59
2023/08/13 04:55:30;;;;;;;10.05;2.47;;;;;;;15.11;100.00;101518.19;5027921;28;20056;-59
2023/08/13 04:58:01;;;;;;;10.18;2.25;;;;;;;15.16;100.00;101517.81;5029929;28;20128;-59
2023/08/13 05:00:29;;;;;;;9.85;2.20;;;;;;;15.22;100.00;101520.03;5032025;28;20072;-56
2023/08/13 05:02:57;;;;;;;13.02;2.53;;;;;;;15.23;100.00;101516.44;5032393;28;20051;-57
2023/08/13 05:05:25;;;;;;;10.32;2.25;;;;;;;15.21;100.00;101515.69;5029672;28;20049;-56
2023/08/13 05:07:55;;;;;;;8.90;1.95;;;;;;;15.23;100.00;101518.22;5029675;28;20053;-56
2023/08/13 05:10:23;;;;;;;10.82;2.45;;;;;;;15.24;100.00;101523.41;5028021;28;20045;-56
2023/08/13 05:12:51;;;;;;;10.68;3.10;;;;;;;15.29;100.00;101521.25;5029375;28;20057;-59
2023/08/13 05:15:19;;;;;;;9.10;2.45;;;;;;;15.38;100.00;101517.09;5030005;28;20063;-59
2023/08/13 05:17:47;;;;;;;10.25;3.00;;;;;;;15.36;100.00;101517.19;5031748;28;20064;-59
2023/08/13 05:20:16;;;;;;;10.13;2.47;;;;;;;15.35;100.00;101519.94;5029628;28;20051;-59
2023/08/13 05:22:44;;;;;;;11.90;2.63;;;;;;;15.37;100.00;101521.53;5029638;28;20048;-59
2023/08/13 05:25:13;;;;;;;10.55;2.92;;;;;;;15.45;100.00;101522.78;5029201;28;20049;-56
2023/08/13 05:27:41;;;;;;;11.43;2.83;;;;;;;15.49;100.00;101521.59;5029238;28;20060;-57
2023/08/13 05:30:10;;;;;;;9.85;2.97;;;;;;;15.52;100.00;101524.00;5029815;28;20049;-56
2023/08/13 05:32:39;;;;;;;9.80;2.97;;;;;;;15.54;100.00;101527.38;5031043;28;20128;-56
2023/08/13 05:35:07;;;;;;;11.50;2.72;;;;;;;15.54;100.00;101520.28;5029263;28;20044;-56
2023/08/13 05:37:35;;;;;;;13.82;3.92;;;;;;;15.61;100.00;101533.06;5028872;28;20501;-56
2023/08/13 05:40:04;;;;;;;14.35;3.22;;;;;;;15.67;100.00;101527.31;5027984;28;20063;-57
2023/08/13 05:42:34;;;;;;;14.80;3.97;;;;;;;15.64;100.00;101533.69;5028448;28;20049;-59
2023/08/13 05:45:02;;;;;;;11.18;3.38;;;;;;;15.75;100.00;101529.34;5032320;28;20041;-59
2023/08/13 05:47:31;;;;;;;11.35;3.13;;;;;;;15.77;100.00;101535.41;5032158;28;20427;-59
2023/08/13 05:49:59;;;;;;;12.52;3.42;;;;;;;15.81;100.00;101531.56;5032078;28;20049;-59
2023/08/13 05:52:28;;;;;;;12.27;3.78;;;;;;;15.80;100.00;101538.69;5029177;28;20505;-59
2023/08/13 05:54:56;;;;;;;13.35;3.90;;;;;;;15.81;100.00;101534.22;5026934;28;20037;-59
2023/08/13 05:57:24;;;;;;;13.45;3.47;;;;;;;15.88;100.00;101548.69;5032104;28;20045;-57
2023/08/13 05:59:54;;;;;;;10.93;3.22;;;;;;;15.86;100.00;101546.16;5031900;28;20037;-59
2023/08/13 06:02:22;;;;;;;8.60;3.10;;;;;;;15.90;100.00;101544.13;5030997;28;20049;-56
2023/08/13 06:04:50;;;;;;;10.15;3.20;;;;;;;15.98;100.00;101547.03;5028733;28;20057;-57
2023/08/13 06:07:18;;;;;;;14.38;3.50;;;;;;;16.04;100.00;101538.59;5028737;28;20045;-60
2023/08/13 06:09:46;;;;;;;9.70;3.25;;;;;;;16.08;100.00;101541.03;5027538;28;20055;-60
2023/08/13 06:12:14;;;;;;;15.52;3.03;;;;;;;16.19;100.00;101541.03;5030379;28;20053;-59
2023/08/13 06:14:43;;;;;;;12.10;3.20;;;;;;;16.27;100.00;101549.25;5028325;28;20072;-59
2023/08/13 06:17:13;;;;;;;9.52;3.15;;;;;;;16.37;100.00;101552.00;5029123;28;20038;-56
2023/08/13 06:19:43;;;;;;;8.52;2.72;;;;;;;16.50;100.00;101550.09;5028143;28;20460;-59
2023/08/13 06:22:12;;;;;;;13.93;3.38;;;;;;;16.58;100.00;101551.28;5029445;28;20132;-59
2023/08/13 06:24:41;;;;;;;12.18;3.30;;;;;;;16.66;100.00;101548.84;5030447;28;20053;-59
2023/08/13 06:27:09;;;;;;;11.98;3.25;;;;;;;16.76;100.00;101557.78;5031610;28;20048;-56
2023/08/13 06:29:37;;;;;;;8.85;2.78;;;;;;;16.84;100.00;101558.00;5029446;28;20049;-59
2023/08/13 06:32:06;;;;;;;11.98;2.85;;;;;;;16.94;100.00;101552.81;5028178;28;20073;-59
2023/08/13 06:34:36;;;;;;;11.10;2.65;;;;;;;17.08;100.00;101556.19;5031257;28;20042;-59
2023/08/13 06:37:04;;;;;;;12.70;3.13;;;;;;;17.13;100.00;101551.34;5030348;28;20049;-57
2023/08/13 06:39:33;;;;;;;11.13;3.20;;;;;;;17.26;100.00;101561.78;5026589;28;20061;-57
2023/08/13 06:42:01;;;;;;;12.80;3.53;;;;;;;17.37;100.00;101554.63;5028776;28;20046;-56
2023/08/13 06:44:29;;;;;;;13.20;2.70;;;;;;;17.49;100.00;101557.22;5027996;28;20215;-56
2023/08/13 06:46:57;;;;;;;10.43;3.13;;;;;;;17.64;100.00;101560.41;5030334;28;20053;-56
2023/08/13 06:49:25;;;;;;;10.30;3.10;;;;;;;17.75;100.00;101557.69;5027823;28;20065;-57
2023/08/13 06:51:55;;;;;;;13.55;2.83;;;;;;;17.93;100.00;101555.34;5029214;28;20500;-58
2023/08/13 06:54:23;;;;;;;8.18;3.25;;;;;;;18.11;100.00;101550.25;5031538;28;20052;-57
2023/08/13 06:56:51;;;;;;;11.60;3.17;;;;;;;18.13;100.00;101555.44;5031382;28;20045;-58
2023/08/13 06:59:19;;;;;;;11.13;3.28;;;;;;;18.26;100.00;101550.75;5027295;28;20049;-58
2023/08/13 07:01:48;;;;;;;9.85;2.47;;;;;;;18.39;100.00;101556.69;5029811;28;20400;-58
2023/08/13 07:04:16;;;;;;;7.00;2.72;;;;;;;18.57;100.00;101561.38;5031264;28;20127;-58
2023/08/13 07:06:46;;;;;;;13.82;3.13;;;;;;;18.69;100.00;101554.97;5031357;28;20053;-56
2023/08/13 07:09:16;;;;;;;8.15;2.65;;;;;;;18.82;100.00;101552.06;5031030;28;20050;-58
2023/08/13 07:11:46;;;;;;;10.90;2.60;;;;;;;19.02;100.00;101552.97;5028226;28;20068;-58
2023/08/13 07:14:14;;;;;;;12.10;2.67;;;;;;;19.10;100.00;101557.59;5029927;28;20469;-59
2023/08/13 07:16:43;;;;;;;10.73;3.15;;;;;;;19.22;100.00;101559.16;5031267;28;20448;-58
2023/08/13 07:19:11;;;;;;;10.00;2.70;;;;;;;19.31;100.00;101565.47;5033324;28;20041;-56
2023/08/13 07:21:39;;;;;;;9.32;2.38;;;;;;;19.51;100.00;101558.31;5032774;28;20052;-56
2023/08/13 07:24:08;;;;;;;9.98;2.78;;;;;;;19.67;100.00;101555.06;5030297;28;20486;-56
2023/08/13 07:26:38;;;;;;;12.20;2.60;;;;;;;19.70;100.00;101557.47;5032427;28;20404;-56
2023/08/13 07:29:07;;;;;;;10.60;2.35;;;;;;;19.82;100.00;101554.66;5032067;28;20397;-59
2023/08/13 07:31:35;;;;;;;10.65;2.67;;;;;;;20.00;100.00;101555.59;5032867;28;20069;-59
2023/08/13 07:34:04;;;;;;;13.75;2.35;;;;;;;20.18;100.00;101554.81;5032536;28;20124;-58
2023/08/13 07:36:32;;;;;;;12.50;2.22;;;;;;;20.41;100.00;101560.63;5031266;28;20057;-59
2023/08/13 07:39:01;;;;;;;8.02;2.38;;;;;;;20.57;100.00;101566.22;5030034;28;20041;-56
2023/08/13 07:41:29;;;;;;;9.93;2.35;;;;;;;20.74;100.00;101553.91;5031139;28;20091;-57
2023/08/13 07:43:58;;;;;;;7.38;1.90;;;;;;;20.77;100.00;101560.78;5032557;28;20072;-59
2023/08/13 07:46:27;;;;;;;8.75;2.35;;;;;;;20.82;100.00;101557.66;5034578;28;20516;-56
2023/08/13 07:48:55;;;;;;;9.85;2.00;;;;;;;21.00;100.00;101561.22;5034309;28;20051;-57
2023/08/13 07:51:23;;;;;;;8.98;2.03;;;;;;;21.21;100.00;101566.25;5033940;28;20061;-57
2023/08/13 07:53:51;;;;;;;10.48;2.10;;;;;;;21.39;100.00;101550.22;5031638;28;20049;-57
2023/08/13 07:56:20;;;;;;;11.90;2.90;;;;;;;21.55;100.00;101557.53;5031016;28;20123;-57
2023/08/13 07:58:48;;;;;;;8.93;2.40;;;;;;;21.68;100.00;101543.78;5032966;28;20124;-57
2023/08/13 08:01:18;;;;;;;7.95;1.85;;;;;;;21.80;100.00;101546.19;5034348;28;20046;-57
2023/08/13 08:03:46;;;;;;;7.53;2.05;;;;;;;21.96;100.00;101554.31;5031256;28;20049;-57
2023/08/13 08:06:14;;;;;;;13.50;2.75;;;;;;;22.06;100.00;101547.03;5031316;28;20127;-57
2023/08/13 08:08:42;;;;;;;11.02;2.22;;;;;;;22.12;100.00;101543.72;5031297;28;20096;-57
2023/08/13 08:11:10;;;;;;;13.60;2.55;;;;;;;22.32;100.00;101540.81;5030495;28;20049;-57
2023/08/13 08:13:38;;;;;;;9.98;2.33;;;;;;;22.27;100.00;101537.75;5030520;28;20137;-56
2023/08/13 08:16:07;;;;;;;9.90;1.88;;;;;;;22.43;100.00;101542.41;5029990;28;20420;-58
2023/08/13 08:18:36;;;;;;;12.90;2.40;;;;;;;22.67;100.00;101549.66;5029968;28;20567;-56
2023/08/13 08:21:04;;;;;;;8.82;2.10;;;;;;;23.01;100.00;101534.50;5031352;28;20049;-57
2023/08/13 08:23:33;;;;;;;8.32;1.80;;;;;;;23.29;100.00;101543.13;5033854;28;20804;-57
2023/08/13 08:26:02;;;;;;;6.85;1.90;;;;;;;23.33;100.00;101541.78;5033043;28;20042;-56
2023/08/13 08:28:30;;;;;;;8.57;2.42;;;;;;;23.17;100.00;101536.41;5031317;28;20042;-56
2023/08/13 08:30:58;;;;;;;8.40;2.10;;;;;;;23.45;100.00;101543.13;5030291;28;20053;-56
2023/08/13 08:33:26;;;;;;;7.22;1.73;;;;;;;23.73;100.00;101542.75;5033367;28;20085;-56
2023/08/13 08:35:56;;;;;;;10.38;1.90;;;;;;;23.78;100.00;101542.25;5033302;28;20041;-56
2023/08/13 08:38:24;;;;;;;15.02;2.20;;;;;;;23.85;100.00;101539.72;5033152;28;20047;-56
2023/08/13 08:40:53;;;;;;;14.40;2.53;;;;;;;24.15;100.00;101548.91;5031074;28;20404;-58
2023/08/13 08:43:24;;;;;;;10.88;2.17;;;;;;;24.32;100.00;101543.47;5030129;28;20124;-58
2023/08/13 08:45:53;;;;;;;12.30;2.33;;;;;;;24.36;100.00;101534.06;5030206;28;20516;-58
2023/08/13 08:48:22;;;;;;;11.13;2.28;;;;;;;24.50;100.00;101543.22;5030800;28;20444;-58
2023/08/13 08:50:51;;;;;;;8.95;1.98;;;;;;;24.40;100.00;101538.06;5031637;28;20559;-58
2023/08/13 08:53:25;;;;;;;10.20;2.22;;;;;;;24.60;100.00;101543.84;5029085;28;20108;-60
2023/08/13 08:55:53;;;;;;;9.40;2.30;;;;;;;24.65;100.00;101533.44;5031699;28;20060;-60
2023/08/13 08:58:24;;;;;;;10.20;2.35;;;;;;;24.70;100.00;101535.59;5033023;28;20041;-60
2023/08/13 09:00:56;;;;;;;9.30;2.10;;;;;;;24.89;100.00;101528.94;5031655;28;20077;-60
2023/08/13 09:03:24;;;;;;;10.48;2.00;;;;;;;24.82;100.00;101528.81;5033024;28;20051;-59
2023/08/13 09:05:53;;;;;;;9.05;2.00;;;;;;;25.01;100.00;101527.50;5033149;28;20049;-58
2023/08/13 09:08:27;;;;;;;9.60;2.22;;;;;;;25.09;100.00;101526.63;5032804;28;20558;-58
2023/08/13 09:10:56;;;;;;;10.57;2.08;;;;;;;24.82;100.00;101523.41;5033141;28;20069;-57
2023/08/13 09:13:25;;;;;;;9.73;2.28;;;;;;;25.13;100.00;101533.31;5031714;28;20054;-57
2023/08/13 09:15:54;;;;;;;11.38;2.60;;;;;;;24.99;100.00;101526.81;5029861;28;20571;-59
2023/08/13 09:18:22;;;;;;;11.38;2.67;;;;;;;24.94;100.00;101522.00;5029555;28;20041;-59
2023/08/13 09:20:50;;;;;;;11.48;2.60;;;;;;;24.89;100.00;101524.38;5031853;28;20049;-60
2023/08/13 09:23:22;;;;;;;8.35;1.80;;;;;;;24.97;100.00;101520.81;5029112;28;20046;-62
2023/08/13 09:25:57;;;;;;;12.30;2.55;;;;;;;25.00;100.00;101520.44;5029950;28;20068;-59
2023/08/13 09:28:25;;;;;;;7.85;2.08;;;;;;;24.89;100.00;101515.47;5032505;28;20045;-61
2023/08/13 09:30:54;;;;;;;8.32;2.63;;;;;;;24.98;100.00;101511.72;5030191;28;20057;-62
2023/08/13 09:33:22;;;;;;;12.00;2.25;;;;;;;24.93;100.00;101514.09;5029089;28;20095;-62
2023/08/13 09:35:50;;;;;;;10.82;2.17;;;;;;;24.93;100.00;101512.25;5029412;28;20128;-57
2023/08/13 09:38:18;;;;;;;9.45;2.05;;;;;;;25.05;100.00;101509.97;5031371;28;20424;-58
2023/08/13 09:40:48;;;;;;;8.68;2.22;;;;;;;24.85;100.00;101511.47;5032379;28;20419;-59
2023/08/13 09:43:25;;;;;;;7.65;1.98;;;;;;;25.04;100.00;101511.00;5032382;28;20053;-58
2023/08/13 09:45:56;;;;;;;10.25;2.10;;;;;;;25.26;100.00;101500.41;5029233;28;20057;-58
2023/08/13 09:48:28;;;;;;;8.65;1.60;;;;;;;25.14;100.00;101499.97;5029156;28;20496;-59
2023/08/13 09:50:57;;;;;;;8.18;2.00;;;;;;;25.19;100.00;101496.75;5030010;28;20111;-58
2023/08/13 09:53:26;;;;;;;8.80;1.95;;;;;;;25.16;100.00;101497.97;5031784;28;20057;-54
2023/08/13 09:55:56;;;;;;;8.43;2.25;;;;;;;25.38;100.00;101496.28;5031872;28;20527;-56
2023/08/13 09:58:26;;;;;;;10.05;1.80;;;;;;;25.25;100.00;101490.63;5029264;28;20059;-56
2023/08/13 10:00:54;;;;;;;9.07;1.80;;;;;;;25.39;100.00;101486.38;5028473;28;20409;-55
2023/08/13 10:03:24;;;;;;;9.82;2.00;;;;;;;25.17;100.00;101490.72;5029226;28;20504;-59
2023/08/13 10:05:53;;;;;;;9.13;1.80;;;;;;;25.20;100.00;101491.19;5031608;28;20608;-59
2023/08/13 10:08:21;;;;;;;9.75;2.35;;;;;;;25.23;100.00;101487.31;5031725;28;20460;-57
2023/08/13 10:10:50;;;;;;;9.45;2.10;;;;;;;25.40;100.00;101491.56;5031426;28;20049;-62
2023/08/13 10:13:19;;;;;;;7.80;2.08;;;;;;;25.39;100.00;101486.38;5031628;28;20477;-63
2023/08/13 10:15:50;;;;;;;8.27;1.80;;;;;;;25.73;100.00;101485.84;5031463;28;20049;-59
2023/08/13 10:18:18;;;;;;;9.45;2.08;;;;;;;25.90;100.00;101477.56;5029502;28;20045;-62
2023/08/13 10:20:46;;;;;;;9.57;1.90;;;;;;;25.83;100.00;101479.34;5027122;28;20161;-58
2023/08/13 10:23:17;;;;;;;7.38;1.70;;;;;;;26.03;100.00;101477.78;5028615;28;20085;-59
2023/08/13 10:25:53;;;;;;;7.70;1.80;;;;;;;26.14;100.00;101473.78;5027765;28;20124;-59
2023/08/13 10:28:22;;;;;;;;;;;;;;;26.15;100.00;101476.28;5028560;28;20141;-59
2023/08/13 10:31:24;;;;;;;11.57;2.38;;;;;;;26.48;100.00;101473.16;5031349;28;19983;-61
2023/08/13 10:34:12;;;;;;;10.82;1.98;;;;;;;25.90;100.00;101472.19;5028724;28;20056;-58
2023/08/13 10:36:51;;;;;;;6.18;1.70;;;;;;;25.85;100.00;101471.91;5028697;28;20053;-55
2023/08/13 10:39:34;;;;;;;8.40;1.90;;;;;;;26.14;100.00;101473.78;5031250;28;20526;-56
2023/08/13 10:42:03;;;;;;;9.35;1.80;;;;;;;25.88;100.00;101469.69;5030053;28;20504;-57
2023/08/13 10:44:41;;;;;;;6.38;1.70;;;;;;;26.30;100.00;101470.88;5030707;28;20057;-57
2023/08/13 10:47:10;;;;;;;9.88;2.08;;;;;;;26.47;100.00;101466.06;5028438;28;20060;-57
2023/08/13 10:49:41;;;;;;;8.98;2.53;;;;;;;26.22;100.00;101467.44;5029878;28;20107;-61
2023/08/13 10:52:10;;;;;;;9.82;2.10;;;;;;;26.28;100.00;101464.00;5032040;28;20054;-60
2023/08/13 10:54:40;;;;;;;9.77;1.88;;;;;;;26.49;100.00;101461.34;5033891;28;20499;-60
2023/08/13 10:57:09;;;;;;;8.88;1.90;;;;;;;26.52;100.00;101460.13;5035535;28;20544;-60
2023/08/13 10:59:40;;;;;;;10.93;1.90;;;;;;;26.24;100.00;101458.13;5033875;28;20048;-58
2023/08/13 11:02:17;;;;;;;6.78;2.10;;;;;;;26.40;100.00;101456.25;5033999;28;20120;-59
2023/08/13 11:04:50;;;;;;;10.23;2.10;;;;;;;26.40;100.00;101457.09;5031720;28;20144;-59
2023/08/13 11:07:18;;;;;;;9.93;1.80;;;;;;;26.64;100.00;101453.19;5032910;28;20095;-59
2023/08/13 11:09:47;;;;;;;8.38;1.80;;;;;;;26.81;100.00;101455.66;5033327;28;20496;-59
2023/08/13 11:12:16;;;;;;;8.30;1.88;;;;;;;26.40;100.00;101449.00;5029475;28;20440;-58
2023/08/13 11:14:45;;;;;;;5.60;1.58;;;;;;;26.35;100.00;101446.03;5033630;28;20107;-59
2023/08/13 11:17:15;;;;;;;10.85;2.25;;;;;;;25.84;100.00;101448.66;5035325;28;20042;-55
2023/08/13 11:19:43;;;;;;;8.55;1.90;;;;;;;25.93;100.00;101450.25;5034360;28;20139;-55
2023/08/13 11:22:11;;;;;;;8.73;1.77;;;;;;;25.62;100.00;101445.91;5034679;28;20076;-54
2023/08/13 11:24:40;;;;;;;7.13;1.90;;;;;;;25.56;100.00;101454.72;5030694;28;20221;-55